KLNP

Lonesome Pine Airport

Wise, Virginia, USA
METAR KLNP 151855Z AUTO 27011G16KT 10SM BKN022 OVC027 M01/M05 A2995 RMK AO2
Observed Flight Rules
Dec-15 @ 18:55 UTC (39 minutes ago) Marginal Visual Flight Rules
Wind Visibility Clouds
270° at 11 knots
 Gusting to 16 knots
10 miles
  • Broken at 2,200' AGL
  • Overcast at 2,700' AGL
Temperatures Readings
Current -1°C / 30°F
Dewpoint -5°C / 23°F
Humidity 75%
Altimeter 29.95" Hg
Pressure 1014 hPa
Elevation 817
METAR KLNP 151855Z AUTO 27011G16KT 10SM BKN022 OVC027 M01/M05 A2995 RMK AO2
Observed Flight Rules
Dec-15 @ 18:55 UTC
(39 minutes ago)
MVFR
Wind Visibility
270° at 11 knots
 Gusting to 16 knots
10 miles
Clouds
  • Broken at 2,200' AGL
  • Overcast at 2,700' AGL
Temperature Dewpoint
-1°C / 30°F -5°C / 23°F
Humidity Altimeter Pressure
75% 29.95" Hg 1014 hPa